Time;durP1;ratioP1;P1;durP2;ratioP2;P2;SDS_P1;SDS_P2;PMS_P1;PMS_P2;Temp;Humidity;BMP_temperature;BMP_pressure;BME280_temperature;BME280_humidity;BME280_pressure;Samples;Min_cycle;Max_cycle;Signal;HPM_P1;HPM_P2
2024/01/12 00:00:08;;;;;;;209.47;89.53;;;0.10;99.90;;;;;;5078446;28;20430;-61
2024/01/12 00:02:33;;;;;;;177.00;78.25;;;0.10;99.90;;;;;;5074041;28;20412;-61
2024/01/12 00:04:59;;;;;;;220.30;91.70;;;0.10;99.90;;;;;;5073884;28;20402;-61
2024/01/12 00:07:25;;;;;;;206.00;88.13;;;0.10;99.90;;;;;;5082934;28;20393;-61
2024/01/12 00:09:51;;;;;;;166.68;75.63;;;0.10;99.90;;;;;;5075475;28;20780;-61
2024/01/12 00:12:16;;;;;;;215.93;87.65;;;0.20;99.90;;;;;;5070655;28;20408;-62
2024/01/12 00:14:42;;;;;;;170.23;78.43;;;0.10;99.90;;;;;;5079735;28;20934;-61
2024/01/12 00:17:08;;;;;;;181.20;80.87;;;0.10;99.90;;;;;;5074788;28;20386;-61
2024/01/12 00:19:34;;;;;;;174.77;77.00;;;0.10;99.90;;;;;;5080853;28;20935;-61
2024/01/12 00:21:59;;;;;;;153.73;71.53;;;0.10;99.90;;;;;;5074703;28;20765;-61
2024/01/12 00:24:25;;;;;;;181.63;79.78;;;0.10;99.90;;;;;;5080499;28;20401;-61
2024/01/12 00:26:51;;;;;;;180.95;78.72;;;0.20;99.90;;;;;;5078231;28;20885;-62
2024/01/12 00:29:17;;;;;;;150.67;72.70;;;0.20;99.90;;;;;;5078101;28;20924;-62
2024/01/12 00:31:42;;;;;;;163.57;75.90;;;0.20;99.90;;;;;;5075131;28;20399;-61
2024/01/12 00:34:08;;;;;;;169.20;76.20;;;0.30;99.90;;;;;;5074686;28;20529;-61
2024/01/12 00:36:34;;;;;;;153.43;72.13;;;0.30;99.90;;;;;;5080672;28;20902;-61
2024/01/12 00:38:59;;;;;;;165.63;73.50;;;0.30;99.90;;;;;;5077998;28;20788;-61
2024/01/12 00:41:25;;;;;;;161.70;74.30;;;0.30;99.90;;;;;;5078963;28;20408;-61
2024/01/12 00:43:51;;;;;;;158.48;72.57;;;0.40;99.90;;;;;;5061074;28;20455;-62
2024/01/12 00:46:17;;;;;;;122.82;61.92;;;0.40;99.90;;;;;;5074944;28;20423;-62
2024/01/12 00:48:43;;;;;;;125.38;60.28;;;0.50;99.90;;;;;;5079421;28;20397;-61
2024/01/12 00:51:11;;;;;;;120.00;59.55;;;0.50;99.90;;;;;;5074455;28;20414;-61
2024/01/12 00:53:36;;;;;;;132.23;63.90;;;0.50;99.90;;;;;;5078364;28;20394;-61
2024/01/12 00:56:02;;;;;;;121.97;59.78;;;0.50;99.90;;;;;;5070564;28;20969;-62
2024/01/12 00:58:28;;;;;;;111.95;55.63;;;0.60;99.90;;;;;;5074707;28;20498;-61
2024/01/12 01:00:54;;;;;;;105.80;53.85;;;0.60;99.90;;;;;;5068750;28;20399;-61
2024/01/12 01:03:20;;;;;;;105.43;53.15;;;0.70;99.90;;;;;;5058428;28;20407;-61
2024/01/12 01:05:46;;;;;;;103.47;53.63;;;0.70;99.90;;;;;;5080892;28;20422;-61
2024/01/12 01:08:12;;;;;;;91.38;47.58;;;0.70;99.90;;;;;;5080388;28;20456;-61
2024/01/12 01:10:37;;;;;;;99.20;50.57;;;0.80;99.90;;;;;;5069467;28;20412;-61
2024/01/12 01:13:03;;;;;;;102.45;50.45;;;0.80;99.90;;;;;;5081750;28;20398;-60
2024/01/12 01:15:29;;;;;;;103.07;50.63;;;0.80;99.90;;;;;;5083580;28;20399;-61
2024/01/12 01:17:55;;;;;;;100.38;51.28;;;0.80;99.90;;;;;;5084018;28;21177;-61
2024/01/12 01:20:21;;;;;;;104.37;51.60;;;0.90;99.90;;;;;;5076748;28;20418;-61
2024/01/12 01:22:47;;;;;;;98.38;49.65;;;0.90;99.90;;;;;;5062362;28;20500;-60
2024/01/12 01:25:13;;;;;;;104.90;49.67;;;0.90;99.90;;;;;;5082072;28;20948;-61
2024/01/12 01:27:38;;;;;;;77.68;42.33;;;0.90;99.90;;;;;;5082020;28;20478;-61
2024/01/12 01:30:05;;;;;;;101.13;47.87;;;0.90;99.90;;;;;;5075605;28;20434;-61
2024/01/12 01:32:30;;;;;;;90.82;46.75;;;1.00;99.90;;;;;;5082727;28;20480;-60
2024/01/12 01:34:56;;;;;;;80.50;41.00;;;1.00;99.90;;;;;;5080738;28;20543;-61
2024/01/12 01:37:22;;;;;;;73.32;38.58;;;1.00;99.90;;;;;;5081239;28;20403;-61
2024/01/12 01:39:47;;;;;;;73.70;38.75;;;1.00;99.90;;;;;;5078519;28;20395;-61
2024/01/12 01:42:13;;;;;;;86.73;44.10;;;1.00;99.90;;;;;;5087905;28;20418;-60
2024/01/12 01:44:39;;;;;;;72.73;39.90;;;1.00;99.90;;;;;;5078427;28;20490;-61
2024/01/12 01:47:04;;;;;;;77.57;40.85;;;1.10;99.90;;;;;;5079643;28;20760;-60
2024/01/12 01:49:30;;;;;;;60.28;31.88;;;1.10;99.90;;;;;;5082687;28;20389;-60
2024/01/12 01:51:57;;;;;;;63.17;34.23;;;1.10;99.90;;;;;;5085501;28;20404;-61
2024/01/12 01:54:23;;;;;;;67.38;33.80;;;1.10;99.90;;;;;;5080351;28;20398;-61
2024/01/12 01:56:49;;;;;;;63.97;33.20;;;1.10;99.90;;;;;;5061195;28;20395;-61
2024/01/12 01:59:15;;;;;;;60.83;33.23;;;1.20;99.90;;;;;;5065128;28;20844;-61
2024/01/12 02:01:42;;;;;;;62.55;33.47;;;1.20;99.90;;;;;;5067963;28;20431;-60
2024/01/12 02:04:09;;;;;;;60.53;31.67;;;1.20;99.90;;;;;;5081872;28;20491;-60
2024/01/12 02:06:35;;;;;;;58.53;32.40;;;1.20;99.90;;;;;;5083005;28;20420;-60
2024/01/12 02:09:04;;;;;;;66.33;33.80;;;1.20;99.90;;;;;;5079499;28;20573;-61
2024/01/12 02:11:29;;;;;;;55.78;30.80;;;1.30;99.90;;;;;;5080255;28;20402;-61
2024/01/12 02:13:56;;;;;;;52.30;29.67;;;1.30;99.90;;;;;;5083415;28;20460;-61
2024/01/12 02:16:22;;;;;;;52.97;31.10;;;1.30;99.90;;;;;;5080206;28;20386;-60
2024/01/12 02:18:47;;;;;;;65.07;32.33;;;1.30;99.90;;;;;;5079772;28;20411;-61
2024/01/12 02:21:13;;;;;;;55.50;28.80;;;1.30;99.90;;;;;;5076102;28;21007;-61
2024/01/12 02:23:39;;;;;;;49.75;28.23;;;1.30;99.90;;;;;;5086194;28;20886;-60
2024/01/12 02:26:04;;;;;;;50.70;28.38;;;1.30;99.90;;;;;;5075108;28;20442;-60
2024/01/12 02:28:31;;;;;;;48.93;25.97;;;1.30;99.90;;;;;;5076528;28;20392;-61
2024/01/12 02:30:57;;;;;;;48.13;25.73;;;1.30;99.90;;;;;;5074367;28;20972;-61
2024/01/12 02:33:23;;;;;;;51.65;26.20;;;1.40;99.90;;;;;;5082063;28;20405;-61
2024/01/12 02:35:48;;;;;;;51.20;27.73;;;1.40;99.90;;;;;;5074837;28;20500;-61
2024/01/12 02:38:14;;;;;;;49.37;27.37;;;1.40;99.90;;;;;;5082915;28;20437;-61
2024/01/12 02:40:40;;;;;;;49.43;28.60;;;1.40;99.90;;;;;;5078465;28;20470;-60
2024/01/12 02:43:06;;;;;;;50.75;27.42;;;1.40;99.90;;;;;;5085381;28;20390;-61
2024/01/12 02:45:31;;;;;;;53.72;28.20;;;1.40;99.90;;;;;;5072812;28;20408;-61
2024/01/12 02:47:57;;;;;;;53.88;28.85;;;1.40;99.90;;;;;;5078706;28;20885;-61
2024/01/12 02:50:23;;;;;;;49.67;27.43;;;1.40;99.90;;;;;;5084338;28;20402;-61
2024/01/12 02:52:49;;;;;;;46.70;26.48;;;1.40;99.90;;;;;;5075905;28;20535;-61
2024/01/12 02:55:15;;;;;;;43.00;26.15;;;1.50;99.90;;;;;;5082845;28;21015;-61
2024/01/12 02:57:40;;;;;;;45.92;26.58;;;1.50;99.90;;;;;;5078191;28;20509;-61
2024/01/12 03:00:06;;;;;;;47.47;27.75;;;1.40;99.90;;;;;;5081064;28;20889;-61
2024/01/12 03:02:32;;;;;;;46.15;26.15;;;1.40;99.90;;;;;;5071249;28;20404;-61
2024/01/12 03:04:58;;;;;;;46.40;25.53;;;1.40;99.90;;;;;;5076906;28;20406;-62
2024/01/12 03:07:23;;;;;;;38.37;23.60;;;1.50;99.90;;;;;;5074263;28;20486;-61
2024/01/12 03:09:49;;;;;;;38.95;23.73;;;1.50;99.90;;;;;;5062026;28;20411;-60
2024/01/12 03:12:15;;;;;;;40.20;24.58;;;1.50;99.90;;;;;;5078221;28;20406;-61
2024/01/12 03:14:40;;;;;;;36.07;23.13;;;1.50;99.90;;;;;;5081419;28;20399;-61
2024/01/12 03:17:06;;;;;;;36.47;22.30;;;1.50;99.90;;;;;;5069989;28;20453;-61
2024/01/12 03:19:32;;;;;;;40.35;23.67;;;1.50;99.90;;;;;;5082384;28;20511;-61
2024/01/12 03:21:57;;;;;;;39.70;24.53;;;1.50;99.90;;;;;;5079645;28;20876;-61
2024/01/12 03:24:24;;;;;;;38.63;24.70;;;1.60;99.90;;;;;;5082682;28;20428;-61
2024/01/12 03:26:49;;;;;;;42.77;25.23;;;1.60;99.90;;;;;;5076894;28;20393;-61
2024/01/12 03:29:15;;;;;;;42.57;24.77;;;1.60;99.90;;;;;;5082777;28;20791;-61
2024/01/12 03:31:41;;;;;;;34.78;21.85;;;1.60;99.90;;;;;;5076817;28;20437;-61
2024/01/12 03:34:06;;;;;;;38.60;24.08;;;1.60;99.90;;;;;;5077840;28;20503;-61
2024/01/12 03:36:32;;;;;;;34.83;20.17;;;1.60;99.90;;;;;;5076462;28;20415;-61
2024/01/12 03:38:58;;;;;;;34.90;20.60;;;1.60;99.90;;;;;;5074626;28;20437;-61
2024/01/12 03:41:23;;;;;;;31.92;19.38;;;1.60;99.90;;;;;;5080823;28;20784;-61
2024/01/12 03:43:49;;;;;;;27.38;18.88;;;1.60;99.90;;;;;;5059585;28;20410;-61
2024/01/12 03:46:15;;;;;;;37.93;21.63;;;1.70;99.90;;;;;;5081265;28;20467;-61
2024/01/12 03:48:41;;;;;;;31.83;21.17;;;1.70;99.90;;;;;;5077358;28;20407;-61
2024/01/12 03:51:07;;;;;;;32.03;21.05;;;1.70;99.90;;;;;;5080225;28;20468;-61
2024/01/12 03:53:32;;;;;;;35.28;22.60;;;1.70;99.90;;;;;;5078349;28;20398;-61
2024/01/12 03:55:58;;;;;;;35.95;22.52;;;1.70;99.90;;;;;;5079720;28;20407;-61
2024/01/12 03:58:24;;;;;;;39.17;22.27;;;1.70;99.90;;;;;;5073245;28;21715;-61
2024/01/12 04:00:49;;;;;;;33.25;22.40;;;1.70;99.90;;;;;;5076165;28;20392;-61
2024/01/12 04:03:15;;;;;;;40.42;23.45;;;1.70;99.90;;;;;;5072432;28;20415;-61
2024/01/12 04:05:41;;;;;;;35.13;22.48;;;1.80;99.90;;;;;;5077894;28;20434;-61
2024/01/12 04:08:06;;;;;;;36.73;22.73;;;1.80;99.90;;;;;;5078600;28;20407;-61
2024/01/12 04:10:32;;;;;;;38.13;23.00;;;1.70;99.90;;;;;;5073252;28;20416;-60
2024/01/12 04:12:58;;;;;;;38.55;22.80;;;1.70;99.90;;;;;;5079895;28;20392;-61
2024/01/12 04:15:23;;;;;;;34.20;23.10;;;1.70;99.90;;;;;;5056918;28;20399;-61
2024/01/12 04:17:49;;;;;;;36.43;23.83;;;1.70;99.90;;;;;;5077453;28;20428;-61
2024/01/12 04:20:15;;;;;;;39.30;24.00;;;1.70;99.90;;;;;;5079515;28;20956;-61
2024/01/12 04:22:40;;;;;;;38.80;23.17;;;1.70;99.90;;;;;;5079276;28;20398;-61
2024/01/12 04:25:07;;;;;;;39.40;24.67;;;1.70;99.90;;;;;;5077508;28;20399;-61
2024/01/12 04:27:32;;;;;;;35.92;23.17;;;1.70;99.90;;;;;;5056942;28;20454;-61
2024/01/12 04:29:58;;;;;;;40.15;23.40;;;1.70;99.90;;;;;;5074308;28;20411;-61
2024/01/12 04:32:24;;;;;;;37.88;22.42;;;1.70;99.90;;;;;;5072633;28;20422;-61
2024/01/12 04:34:50;;;;;;;36.00;23.95;;;1.60;99.90;;;;;;5077066;28;21002;-61
2024/01/12 04:37:15;;;;;;;39.83;23.38;;;1.60;99.90;;;;;;5074919;28;20444;-61
2024/01/12 04:39:41;;;;;;;34.37;24.10;;;1.70;99.90;;;;;;5078116;28;20480;-61
2024/01/12 04:42:07;;;;;;;40.53;25.10;;;1.70;99.90;;;;;;5079179;28;20772;-61
2024/01/12 04:44:33;;;;;;;41.23;23.47;;;1.60;99.90;;;;;;5075162;28;20474;-61
2024/01/12 04:46:59;;;;;;;37.42;24.25;;;1.60;99.90;;;;;;5080030;28;20455;-61
2024/01/12 04:49:25;;;;;;;41.78;24.70;;;1.60;99.90;;;;;;5079152;28;20402;-61
2024/01/12 04:51:50;;;;;;;36.17;23.27;;;1.50;99.90;;;;;;5080042;28;20444;-61
2024/01/12 04:54:16;;;;;;;40.08;23.15;;;1.50;99.90;;;;;;5079839;28;20408;-61
2024/01/12 04:56:42;;;;;;;34.20;23.33;;;1.50;99.90;;;;;;5076299;28;20400;-61
2024/01/12 04:59:08;;;;;;;35.25;23.10;;;1.50;99.90;;;;;;5074959;28;20430;-61
2024/01/12 05:01:34;;;;;;;35.05;23.08;;;1.50;99.90;;;;;;5076589;28;20394;-61
2024/01/12 05:04:00;;;;;;;40.92;23.38;;;1.50;99.90;;;;;;5070942;28;20398;-61
2024/01/12 05:06:26;;;;;;;34.60;22.75;;;1.50;99.90;;;;;;5078660;28;20381;-61
2024/01/12 05:08:51;;;;;;;35.40;22.20;;;1.50;99.90;;;;;;5072348;28;20406;-61
2024/01/12 05:11:17;;;;;;;34.78;23.27;;;1.60;99.90;;;;;;5077497;28;20417;-61
2024/01/12 05:13:43;;;;;;;41.07;23.23;;;1.60;99.90;;;;;;5083598;28;20493;-61
2024/01/12 05:16:08;;;;;;;35.73;22.20;;;1.60;99.90;;;;;;5079217;28;20447;-61
2024/01/12 05:18:34;;;;;;;35.33;22.20;;;1.60;99.90;;;;;;5077431;28;21077;-60
2024/01/12 05:21:00;;;;;;;36.58;22.20;;;1.60;99.90;;;;;;5075712;28;20431;-61
2024/01/12 05:23:25;;;;;;;37.27;23.77;;;1.70;99.90;;;;;;5079055;28;20459;-61
2024/01/12 05:25:51;;;;;;;38.33;23.65;;;1.70;99.90;;;;;;5074395;28;20460;-61
2024/01/12 05:28:17;;;;;;;32.97;21.13;;;1.60;99.90;;;;;;5082309;28;20473;-61
2024/01/12 05:30:42;;;;;;;36.67;20.83;;;1.60;99.90;;;;;;5065906;28;20436;-61
2024/01/12 05:33:08;;;;;;;32.20;19.15;;;1.70;99.90;;;;;;5075906;28;20391;-61
2024/01/12 05:35:34;;;;;;;34.78;20.83;;;1.70;99.90;;;;;;5077795;28;20447;-61
2024/01/12 05:38:00;;;;;;;32.22;20.67;;;1.70;99.90;;;;;;5075180;28;20493;-61
2024/01/12 05:40:25;;;;;;;33.77;20.07;;;1.70;99.90;;;;;;5071264;28;20888;-61
2024/01/12 05:42:51;;;;;;;30.63;19.33;;;1.70;99.90;;;;;;5054250;28;20400;-61
2024/01/12 05:45:17;;;;;;;27.35;19.25;;;1.70;99.90;;;;;;5078068;28;20418;-61
2024/01/12 05:47:42;;;;;;;33.22;19.88;;;1.70;99.90;;;;;;5073966;28;20918;-61
2024/01/12 05:50:08;;;;;;;37.73;20.03;;;1.70;99.90;;;;;;5074515;28;20402;-61
2024/01/12 05:52:34;;;;;;;30.87;19.40;;;1.70;99.90;;;;;;5073419;28;20430;-61
2024/01/12 05:55:01;;;;;;;31.27;19.33;;;1.70;99.90;;;;;;5081763;28;20426;-61
2024/01/12 05:57:26;;;;;;;32.40;19.00;;;1.70;99.90;;;;;;5080105;28;20407;-61
2024/01/12 05:59:53;;;;;;;33.47;19.23;;;1.70;99.90;;;;;;5081077;28;20423;-61
2024/01/12 06:02:19;;;;;;;30.60;19.02;;;1.70;99.90;;;;;;5083581;28;20628;-61
2024/01/12 06:04:45;;;;;;;34.63;19.90;;;1.70;99.90;;;;;;5067076;28;20399;-61
2024/01/12 06:07:10;;;;;;;27.13;18.30;;;1.80;99.90;;;;;;5065580;28;20461;-61
2024/01/12 06:09:36;;;;;;;31.98;19.20;;;1.80;99.90;;;;;;5078426;28;20763;-61
2024/01/12 06:12:02;;;;;;;36.55;20.83;;;1.80;99.90;;;;;;5075612;28;20407;-61
2024/01/12 06:14:28;;;;;;;37.90;21.80;;;1.80;99.90;;;;;;5080755;28;20779;-61
2024/01/12 06:16:53;;;;;;;41.43;23.63;;;1.80;99.90;;;;;;5081369;28;20926;-61
2024/01/12 06:19:19;;;;;;;38.20;22.08;;;1.80;99.90;;;;;;5078337;28;20426;-61
2024/01/12 06:21:44;;;;;;;36.28;21.10;;;1.70;99.90;;;;;;5084139;28;20455;-62
2024/01/12 06:24:11;;;;;;;43.20;22.13;;;1.70;99.90;;;;;;5074891;28;20410;-61
2024/01/12 06:26:37;;;;;;;38.80;22.88;;;1.70;99.90;;;;;;5079154;28;20395;-61
2024/01/12 06:29:03;;;;;;;40.33;21.05;;;1.70;99.90;;;;;;5059794;28;20433;-62
2024/01/12 06:31:31;;;;;;;44.22;22.45;;;1.70;99.90;;;;;;5079764;28;20477;-61
2024/01/12 06:33:57;;;;;;;42.92;23.23;;;1.80;99.90;;;;;;5078018;28;20924;-61
2024/01/12 06:36:23;;;;;;;48.67;22.90;;;1.80;99.90;;;;;;5080914;28;20459;-61
2024/01/12 06:38:49;;;;;;;47.42;22.20;;;1.70;99.90;;;;;;5073175;28;20416;-61
2024/01/12 06:41:14;;;;;;;40.88;22.58;;;1.70;99.90;;;;;;5079781;28;20402;-61
2024/01/12 06:43:40;;;;;;;41.60;22.08;;;1.70;99.90;;;;;;5048898;28;20405;-61
2024/01/12 06:46:06;;;;;;;39.72;22.42;;;1.60;99.90;;;;;;5077563;28;20402;-61
2024/01/12 06:48:34;;;;;;;40.78;22.50;;;1.70;99.90;;;;;;5074223;28;20912;-61
2024/01/12 06:51:00;;;;;;;49.45;24.15;;;1.60;99.90;;;;;;5075321;28;21047;-61
2024/01/12 06:53:26;;;;;;;42.75;23.30;;;1.60;99.90;;;;;;5080434;28;20895;-61
2024/01/12 06:55:51;;;;;;;47.42;24.17;;;1.70;99.90;;;;;;5082680;28;20398;-61
2024/01/12 06:58:17;;;;;;;46.80;24.42;;;1.70;99.90;;;;;;5080456;28;20932;-61
2024/01/12 07:00:43;;;;;;;45.92;24.17;;;1.70;99.90;;;;;;5073616;28;20394;-61
2024/01/12 07:03:09;;;;;;;53.00;25.13;;;1.70;99.90;;;;;;5078578;28;20419;-61
2024/01/12 07:05:34;;;;;;;58.97;24.95;;;1.70;99.90;;;;;;5074358;28;20399;-61
2024/01/12 07:08:00;;;;;;;62.85;26.25;;;1.70;99.90;;;;;;5074830;28;20402;-61
2024/01/12 07:10:26;;;;;;;53.58;25.38;;;1.70;99.90;;;;;;5069964;28;20418;-61
2024/01/12 07:12:51;;;;;;;52.90;26.20;;;1.70;99.90;;;;;;5076246;28;20412;-61
2024/01/12 07:15:20;;;;;;;57.83;26.63;;;1.70;99.90;;;;;;5073971;28;20742;-61
2024/01/12 07:17:50;;;;;;;53.67;26.53;;;1.80;99.90;;;;;;5075578;28;20740;-61
2024/01/12 07:20:16;;;;;;;67.53;27.95;;;1.80;99.90;;;;;;5063527;28;20421;-61
2024/01/12 07:22:43;;;;;;;66.13;27.48;;;1.80;99.90;;;;;;5069310;28;20925;-61
2024/01/12 07:25:09;;;;;;;79.40;31.23;;;1.70;99.90;;;;;;5068584;28;20411;-61
2024/01/12 07:27:34;;;;;;;82.93;31.00;;;1.80;99.90;;;;;;5062911;28;20495;-61
2024/01/12 07:30:00;;;;;;;77.43;31.15;;;1.80;99.90;;;;;;5067088;28;20487;-61
2024/01/12 07:32:26;;;;;;;84.20;31.10;;;1.70;99.90;;;;;;5065086;28;20437;-61
2024/01/12 07:34:52;;;;;;;73.97;30.90;;;1.70;99.90;;;;;;5067461;28;20403;-61
2024/01/12 07:37:17;;;;;;;83.95;32.03;;;1.70;99.90;;;;;;5067319;28;20393;-61
2024/01/12 07:39:43;;;;;;;72.10;30.17;;;1.80;99.90;;;;;;5069179;28;20411;-61
2024/01/12 07:42:08;;;;;;;95.70;32.50;;;1.70;99.90;;;;;;5067901;28;20891;-61
2024/01/12 07:44:37;;;;;;;80.40;29.60;;;1.70;99.90;;;;;;5052635;28;20408;-62
2024/01/12 07:47:03;;;;;;;76.95;29.95;;;1.80;99.90;;;;;;5080725;28;20374;-61
2024/01/12 07:49:28;;;;;;;64.85;27.77;;;1.70;99.90;;;;;;5066891;28;20412;-61
2024/01/12 07:51:54;;;;;;;63.47;26.30;;;1.80;99.90;;;;;;5067582;28;20403;-61
2024/01/12 07:54:20;;;;;;;54.37;24.63;;;1.80;99.90;;;;;;5065884;28;20416;-61
2024/01/12 07:56:45;;;;;;;44.60;23.20;;;1.80;99.90;;;;;;5067688;28;20473;-61
2024/01/12 07:59:12;;;;;;;40.20;21.73;;;1.80;99.90;;;;;;5067887;28;20451;-61
2024/01/12 08:01:40;;;;;;;38.07;21.87;;;1.80;99.90;;;;;;5065484;28;20419;-61
2024/01/12 08:04:06;;;;;;;32.83;20.33;;;1.80;99.90;;;;;;5067752;28;21548;-61
2024/01/12 08:06:32;;;;;;;38.30;20.88;;;1.80;99.90;;;;;;5069299;28;21393;-61
2024/01/12 08:08:58;;;;;;;35.65;21.05;;;1.80;99.90;;;;;;5083110;27;20467;-61
2024/01/12 08:11:24;;;;;;;34.13;20.20;;;1.80;99.90;;;;;;5068901;28;20416;-61
2024/01/12 08:13:49;;;;;;;35.37;21.27;;;1.80;99.90;;;;;;5050785;28;20768;-61
2024/01/12 08:16:15;;;;;;;36.22;21.08;;;1.80;99.90;;;;;;5050283;28;20983;-61
2024/01/12 08:18:41;;;;;;;42.70;21.00;;;1.80;99.90;;;;;;5068327;28;20503;-61
2024/01/12 08:21:06;;;;;;;37.90;21.00;;;1.80;99.90;;;;;;5052070;28;20602;-61
2024/01/12 08:23:32;;;;;;;46.57;22.53;;;1.90;99.90;;;;;;5049058;28;21003;-61
2024/01/12 08:25:58;;;;;;;38.55;21.25;;;1.90;99.90;;;;;;5051870;28;20451;-61
2024/01/12 08:28:23;;;;;;;39.70;21.13;;;1.80;99.90;;;;;;5069161;28;20400;-61
2024/01/12 08:30:49;;;;;;;40.78;21.48;;;1.90;99.90;;;;;;5043075;28;20440;-61
2024/01/12 08:33:15;;;;;;;39.53;21.00;;;1.80;99.90;;;;;;5053104;28;20824;-61
2024/01/12 08:35:41;;;;;;;40.27;20.60;;;1.90;99.90;;;;;;5069264;28;20426;-61
2024/01/12 08:38:06;;;;;;;37.38;21.77;;;1.90;99.90;;;;;;5053508;28;20424;-61
2024/01/12 08:40:32;;;;;;;39.47;21.83;;;1.90;99.90;;;;;;5067959;28;20396;-61
2024/01/12 08:42:58;;;;;;;40.97;21.33;;;1.90;99.90;;;;;;5062713;28;20423;-61
2024/01/12 08:45:23;;;;;;;43.10;22.17;;;2.00;99.90;;;;;;5066348;28;20416;-61
2024/01/12 08:47:49;;;;;;;38.75;21.25;;;2.00;99.90;;;;;;5068718;28;20798;-61
2024/01/12 08:50:15;;;;;;;39.78;21.25;;;1.90;99.90;;;;;;5068824;28;20514;-61
2024/01/12 08:52:40;;;;;;;39.13;21.80;;;2.00;99.90;;;;;;5068974;28;20750;-61
2024/01/12 08:55:09;;;;;;;39.73;21.80;;;2.00;99.90;;;;;;5047558;28;20415;-62
2024/01/12 08:57:35;;;;;;;40.40;21.48;;;2.00;99.90;;;;;;5065827;28;20787;-61
2024/01/12 09:00:03;;;;;;;39.55;21.83;;;2.00;99.90;;;;;;5067631;28;20399;-61
2024/01/12 09:02:29;;;;;;;37.70;21.15;;;2.00;99.90;;;;;;5067322;28;20784;-61
2024/01/12 09:04:55;;;;;;;36.00;21.10;;;2.00;99.90;;;;;;5066858;28;20402;-61
2024/01/12 09:07:20;;;;;;;39.15;21.70;;;2.00;99.90;;;;;;5067578;28;20445;-61
2024/01/12 09:09:46;;;;;;;37.53;21.07;;;2.00;99.90;;;;;;5067599;28;20502;-61
2024/01/12 09:12:12;;;;;;;40.77;21.33;;;2.00;99.90;;;;;;5068714;28;20896;-61
2024/01/12 09:14:37;;;;;;;36.03;20.50;;;2.00;99.90;;;;;;5065698;28;20407;-61
2024/01/12 09:17:03;;;;;;;36.55;20.70;;;2.10;99.90;;;;;;5067486;28;20407;-61
2024/01/12 09:19:29;;;;;;;34.10;21.10;;;2.10;99.90;;;;;;5067158;28;20792;-61
2024/01/12 09:21:55;;;;;;;33.57;20.50;;;2.10;99.90;;;;;;5068576;28;20921;-61
2024/01/12 09:24:20;;;;;;;38.65;20.95;;;2.10;99.90;;;;;;5067026;28;20426;-60
2024/01/12 09:26:46;;;;;;;34.38;20.45;;;2.10;99.90;;;;;;5068171;28;20483;-61
2024/01/12 09:29:12;;;;;;;34.20;21.33;;;2.10;99.90;;;;;;5070870;28;20430;-61
2024/01/12 09:31:38;;;;;;;36.47;20.87;;;2.20;99.90;;;;;;5070847;28;20408;-61
2024/01/12 09:34:04;;;;;;;34.95;19.52;;;2.10;99.90;;;;;;5070665;28;20415;-61
2024/01/12 09:36:30;;;;;;;32.83;19.47;;;2.20;99.90;;;;;;5070959;28;20420;-61
2024/01/12 09:38:55;;;;;;;34.50;19.43;;;2.20;99.90;;;;;;5071144;28;20423;-61
2024/01/12 09:41:54;;;;;;;35.58;20.27;;;2.20;99.90;;;;;;5070700;28;20386;-61
2024/01/12 09:44:20;;;;;;;37.88;20.27;;;2.20;99.90;;;;;;5063252;28;20418;-61
2024/01/12 09:46:58;;;;;;;35.05;20.20;;;2.30;99.90;;;;;;5070638;28;20456;-61
2024/01/12 09:49:29;;;;;;;32.10;19.77;;;2.30;99.90;;;;;;5060911;28;20427;-62
2024/01/12 09:51:56;;;;;;;34.83;18.60;;;2.30;99.90;;;;;;5069523;28;20931;-61
2024/01/12 09:54:22;;;;;;;31.35;17.65;;;2.30;99.90;;;;;;5068408;28;20881;-61
2024/01/12 09:56:48;;;;;;;30.00;17.52;;;2.30;99.90;;;;;;5069236;28;20533;-61
2024/01/12 09:59:16;;;;;;;28.95;17.02;;;2.40;99.90;;;;;;5059698;28;20424;-60
2024/01/12 10:01:42;;;;;;;30.65;17.55;;;2.40;99.90;;;;;;5065551;28;20447;-60
2024/01/12 10:04:09;;;;;;;31.98;18.05;;;2.40;99.90;;;;;;5069253;28;20446;-61
2024/01/12 10:06:37;;;;;;;27.85;16.58;;;2.50;99.90;;;;;;5070970;28;20418;-60
2024/01/12 10:09:04;;;;;;;25.63;16.52;;;2.50;99.90;;;;;;5072647;28;20403;-60
2024/01/12 10:11:30;;;;;;;26.42;16.08;;;2.50;99.90;;;;;;5055421;28;20424;-61
2024/01/12 10:13:56;;;;;;;25.40;15.07;;;2.50;99.90;;;;;;5071802;28;20850;-60
2024/01/12 10:16:27;;;;;;;28.60;16.08;;;2.60;99.90;;;;;;5070954;28;20430;-61
2024/01/12 10:18:53;;;;;;;26.83;15.23;;;2.60;99.90;;;;;;5069593;28;20922;-60
2024/01/12 10:21:19;;;;;;;23.87;14.83;;;2.60;99.90;;;;;;5067879;28;20422;-60
2024/01/12 10:23:45;;;;;;;28.73;14.98;;;2.60;99.90;;;;;;5069897;28;20415;-61
2024/01/12 10:26:15;;;;;;;25.35;14.20;;;2.60;99.90;;;;;;5066180;28;20430;-61
2024/01/12 10:28:42;;;;;;;28.85;14.52;;;2.70;99.90;;;;;;5077761;28;20892;-60
2024/01/12 10:31:08;;;;;;;24.98;13.25;;;2.60;99.90;;;;;;5072236;28;20502;-60
2024/01/12 10:33:34;;;;;;;25.10;14.02;;;2.70;99.90;;;;;;5078548;28;20397;-60
2024/01/12 10:36:20;;;;;;;25.52;13.65;;;2.80;99.90;;;;;;5081251;28;20644;-60
2024/01/12 10:38:49;;;;;;;24.02;12.88;;;2.80;99.90;;;;;;5076543;28;20415;-60
2024/01/12 10:41:21;;;;;;;23.07;12.87;;;2.80;99.90;;;;;;5068758;28;20942;-60
2024/01/12 10:43:52;;;;;;;24.17;13.20;;;2.90;99.90;;;;;;5070432;28;20759;-60
2024/01/12 10:46:43;;;;;;;25.20;12.98;;;2.90;99.90;;;;;;5067723;28;20934;-60
2024/01/12 10:49:15;;;;;;;26.90;13.45;;;2.90;99.90;;;;;;5069635;28;20415;-60
2024/01/12 10:52:08;;;;;;;22.48;11.75;;;3.00;99.90;;;;;;5070491;28;20403;-60
2024/01/12 10:54:56;;;;;;;21.10;11.77;;;3.00;99.90;;;;;;5070363;28;20391;-60
2024/01/12 10:57:24;;;;;;;25.67;13.68;;;3.10;99.90;;;;;;5059710;28;20391;-60
2024/01/12 10:59:50;;;;;;;24.57;12.13;;;3.10;99.90;;;;;;5069914;28;21061;-60
2024/01/12 11:02:16;;;;;;;23.27;11.20;;;3.20;99.90;;;;;;5068614;28;20502;-60
2024/01/12 11:04:43;;;;;;;22.23;10.77;;;3.20;99.90;;;;;;5071640;28;20396;-60
2024/01/12 11:07:10;;;;;;;28.00;12.98;;;3.20;99.90;;;;;;5052639;28;20410;-60
2024/01/12 11:09:36;;;;;;;24.63;10.18;;;3.20;99.90;;;;;;5068633;28;20625;-60
2024/01/12 11:12:08;;;;;;;24.08;11.48;;;3.30;99.90;;;;;;5070062;28;20612;-60
2024/01/12 11:14:35;;;;;;;23.48;11.25;;;3.30;99.90;;;;;;5070246;28;20396;-60
2024/01/12 11:17:01;;;;;;;25.67;10.50;;;3.40;99.90;;;;;;5070182;28;20399;-60
2024/01/12 11:19:28;;;;;;;19.83;10.13;;;3.40;99.90;;;;;;5068546;28;20420;-60
2024/01/12 11:22:09;;;;;;;22.83;9.50;;;3.50;99.90;;;;;;5052361;28;20443;-60
2024/01/12 11:24:42;;;;;;;19.73;9.48;;;3.60;99.90;;;;;;5070254;28;20395;-60
2024/01/12 11:27:10;;;;;;;23.67;9.10;;;3.60;99.90;;;;;;5068956;28;20461;-60
2024/01/12 11:29:36;;;;;;;22.55;8.95;;;3.80;99.90;;;;;;5068584;28;20407;-60
2024/01/12 11:32:03;;;;;;;22.30;8.90;;;3.90;99.90;;;;;;5068303;28;20412;-60
2024/01/12 11:34:38;;;;;;;22.67;8.98;;;3.90;99.90;;;;;;5070042;28;20823;-60
2024/01/12 11:37:08;;;;;;;20.77;8.95;;;4.00;99.90;;;;;;5069736;28;20402;-60
2024/01/12 11:39:38;;;;;;;22.52;9.57;;;4.00;99.90;;;;;;5051679;28;20420;-60
2024/01/12 11:42:07;;;;;;;23.63;10.73;;;4.00;99.90;;;;;;5069306;28;20483;-60
2024/01/12 11:44:34;;;;;;;23.85;10.45;;;4.10;99.90;;;;;;5067968;28;20445;-60
2024/01/12 11:47:01;;;;;;;21.47;8.50;;;4.10;99.90;;;;;;5068429;28;20461;-60
2024/01/12 11:49:29;;;;;;;16.67;6.78;;;4.10;99.90;;;;;;5069530;28;20985;-60
2024/01/12 11:52:05;;;;;;;18.58;6.88;;;4.10;99.90;;;;;;5054866;28;20415;-60
2024/01/12 11:54:31;;;;;;;16.40;6.88;;;4.10;99.90;;;;;;5069289;28;20468;-60
2024/01/12 11:56:57;;;;;;;18.20;7.30;;;4.10;99.90;;;;;;5051531;28;20408;-60
2024/01/12 11:59:23;;;;;;;15.63;6.80;;;4.20;99.90;;;;;;5067582;28;20431;-60
2024/01/12 12:01:48;;;;;;;24.37;8.17;;;4.20;99.90;;;;;;5069508;28;20868;-60
2024/01/12 12:04:17;;;;;;;20.57;8.00;;;4.20;99.90;;;;;;5051294;28;20464;-60
2024/01/12 12:06:46;;;;;;;23.42;7.95;;;4.20;99.90;;;;;;5051468;28;20504;-60
2024/01/12 12:09:12;;;;;;;23.67;8.40;;;4.20;99.90;;;;;;5051462;28;20407;-60
2024/01/12 12:11:39;;;;;;;22.27;8.68;;;4.20;99.90;;;;;;5069289;28;20407;-60
2024/01/12 12:14:04;;;;;;;23.40;10.77;;;4.30;99.90;;;;;;5069035;28;20419;-60
2024/01/12 12:16:30;;;;;;;22.30;8.80;;;4.30;99.90;;;;;;5076115;28;20487;-60
2024/01/12 12:18:56;;;;;;;25.88;11.73;;;4.30;99.90;;;;;;5074216;28;20430;-60
2024/01/12 12:21:22;;;;;;;29.60;12.85;;;4.30;99.90;;;;;;5067894;28;20419;-60
2024/01/12 12:23:48;;;;;;;30.03;11.90;;;4.30;99.90;;;;;;5067881;28;20478;-60
2024/01/12 12:26:17;;;;;;;28.20;11.05;;;4.40;99.90;;;;;;5067214;28;20537;-60
2024/01/12 12:28:45;;;;;;;30.52;10.73;;;4.40;99.90;;;;;;5060089;28;20760;-60
2024/01/12 12:31:11;;;;;;;27.53;9.83;;;4.40;99.90;;;;;;5068896;28;20419;-60